sensor_id;sensor_type;location;lat;lon;timestamp;P1;durP1;ratioP1;P2;durP2;ratioP2
24409;SDS011;12543;53.364;-1.504;2022-12-07T00:01:24;4.73;;;1.37;;
24409;SDS011;12543;53.364;-1.504;2022-12-07T00:03:53;6.75;;;1.63;;
24409;SDS011;12543;53.364;-1.504;2022-12-07T00:06:32;5.72;;;1.60;;
24409;SDS011;12543;53.364;-1.504;2022-12-07T00:09:00;4.60;;;1.52;;
24409;SDS011;12543;53.364;-1.504;2022-12-07T00:11:27;5.93;;;1.52;;
24409;SDS011;12543;53.364;-1.504;2022-12-07T00:13:55;4.00;;;1.17;;
24409;SDS011;12543;53.364;-1.504;2022-12-07T00:16:29;4.60;;;1.15;;
24409;SDS011;12543;53.364;-1.504;2022-12-07T00:18:57;5.57;;;1.27;;
24409;SDS011;12543;53.364;-1.504;2022-12-07T00:21:29;4.28;;;1.17;;
24409;SDS011;12543;53.364;-1.504;2022-12-07T00:23:57;3.53;;;1.02;;
24409;SDS011;12543;53.364;-1.504;2022-12-07T00:26:31;3.30;;;1.05;;
24409;SDS011;12543;53.364;-1.504;2022-12-07T00:29:22;5.18;;;1.20;;
24409;SDS011;12543;53.364;-1.504;2022-12-07T00:31:52;4.35;;;1.10;;
24409;SDS011;12543;53.364;-1.504;2022-12-07T00:34:20;4.85;;;1.40;;
24409;SDS011;12543;53.364;-1.504;2022-12-07T00:36:48;5.20;;;1.30;;
24409;SDS011;12543;53.364;-1.504;2022-12-07T00:39:15;4.38;;;1.38;;
24409;SDS011;12543;53.364;-1.504;2022-12-07T00:41:43;3.67;;;0.90;;
24409;SDS011;12543;53.364;-1.504;2022-12-07T00:44:10;5.03;;;1.17;;
24409;SDS011;12543;53.364;-1.504;2022-12-07T00:46:37;2.42;;;0.88;;
24409;SDS011;12543;53.364;-1.504;2022-12-07T00:49:04;4.30;;;1.00;;
24409;SDS011;12543;53.364;-1.504;2022-12-07T00:51:31;3.80;;;1.35;;
24409;SDS011;12543;53.364;-1.504;2022-12-07T00:53:58;4.90;;;1.23;;
24409;SDS011;12543;53.364;-1.504;2022-12-07T00:56:26;3.67;;;1.33;;
24409;SDS011;12543;53.364;-1.504;2022-12-07T00:58:58;5.28;;;1.15;;
24409;SDS011;12543;53.364;-1.504;2022-12-07T01:01:34;2.88;;;1.10;;
24409;SDS011;12543;53.364;-1.504;2022-12-07T01:04:03;5.25;;;1.42;;
24409;SDS011;12543;53.364;-1.504;2022-12-07T01:06:30;5.70;;;1.48;;
24409;SDS011;12543;53.364;-1.504;2022-12-07T01:08:57;3.65;;;1.08;;
24409;SDS011;12543;53.364;-1.504;2022-12-07T01:11:26;3.10;;;1.15;;
24409;SDS011;12543;53.364;-1.504;2022-12-07T01:13:55;2.50;;;1.02;;
24409;SDS011;12543;53.364;-1.504;2022-12-07T01:16:24;4.65;;;0.90;;
24409;SDS011;12543;53.364;-1.504;2022-12-07T01:18:53;4.18;;;0.98;;
24409;SDS011;12543;53.364;-1.504;2022-12-07T01:23:49;4.55;;;1.50;;
24409;SDS011;12543;53.364;-1.504;2022-12-07T01:26:18;4.70;;;1.20;;
24409;SDS011;12543;53.364;-1.504;2022-12-07T01:28:48;9.57;;;1.70;;
24409;SDS011;12543;53.364;-1.504;2022-12-07T01:31:17;4.03;;;1.15;;
24409;SDS011;12543;53.364;-1.504;2022-12-07T01:33:47;3.88;;;1.05;;
24409;SDS011;12543;53.364;-1.504;2022-12-07T01:36:16;4.65;;;1.10;;
24409;SDS011;12543;53.364;-1.504;2022-12-07T01:38:49;3.88;;;0.90;;
24409;SDS011;12543;53.364;-1.504;2022-12-07T01:41:19;3.92;;;1.00;;
24409;SDS011;12543;53.364;-1.504;2022-12-07T01:44:07;2.10;;;0.68;;
24409;SDS011;12543;53.364;-1.504;2022-12-07T01:49:22;4.43;;;0.98;;
24409;SDS011;12543;53.364;-1.504;2022-12-07T01:54:51;3.95;;;0.95;;
24409;SDS011;12543;53.364;-1.504;2022-12-07T01:57:24;2.28;;;1.10;;
24409;SDS011;12543;53.364;-1.504;2022-12-07T01:59:51;6.38;;;1.35;;
24409;SDS011;12543;53.364;-1.504;2022-12-07T02:02:23;4.40;;;1.25;;
24409;SDS011;12543;53.364;-1.504;2022-12-07T02:05:01;3.80;;;1.02;;
24409;SDS011;12543;53.364;-1.504;2022-12-07T02:07:34;3.05;;;1.45;;
24409;SDS011;12543;53.364;-1.504;2022-12-07T02:10:13;1.77;;;0.95;;
24409;SDS011;12543;53.364;-1.504;2022-12-07T02:12:45;4.35;;;1.15;;
24409;SDS011;12543;53.364;-1.504;2022-12-07T02:15:15;2.85;;;0.73;;
24409;SDS011;12543;53.364;-1.504;2022-12-07T02:17:55;2.22;;;0.80;;
24409;SDS011;12543;53.364;-1.504;2022-12-07T02:20:35;2.95;;;0.80;;
24409;SDS011;12543;53.364;-1.504;2022-12-07T02:28:37;2.80;;;0.82;;
24409;SDS011;12543;53.364;-1.504;2022-12-07T02:31:31;4.15;;;1.02;;
24409;SDS011;12543;53.364;-1.504;2022-12-07T02:34:06;2.47;;;0.80;;
24409;SDS011;12543;53.364;-1.504;2022-12-07T02:36:39;3.63;;;1.20;;
24409;SDS011;12543;53.364;-1.504;2022-12-07T02:39:15;2.65;;;0.90;;
24409;SDS011;12543;53.364;-1.504;2022-12-07T02:41:47;3.58;;;0.88;;
24409;SDS011;12543;53.364;-1.504;2022-12-07T02:44:20;5.82;;;0.95;;
24409;SDS011;12543;53.364;-1.504;2022-12-07T02:46:53;2.88;;;0.80;;
24409;SDS011;12543;53.364;-1.504;2022-12-07T02:49:24;3.72;;;0.85;;
24409;SDS011;12543;53.364;-1.504;2022-12-07T02:51:56;3.42;;;0.80;;
24409;SDS011;12543;53.364;-1.504;2022-12-07T02:54:23;2.17;;;0.80;;
24409;SDS011;12543;53.364;-1.504;2022-12-07T02:56:52;3.05;;;0.95;;
24409;SDS011;12543;53.364;-1.504;2022-12-07T03:11:02;4.30;;;1.35;;
24409;SDS011;12543;53.364;-1.504;2022-12-07T03:13:38;4.03;;;0.80;;
24409;SDS011;12543;53.364;-1.504;2022-12-07T03:16:15;3.38;;;1.02;;
24409;SDS011;12543;53.364;-1.504;2022-12-07T03:18:46;2.67;;;0.95;;
24409;SDS011;12543;53.364;-1.504;2022-12-07T03:21:23;1.77;;;0.65;;
24409;SDS011;12543;53.364;-1.504;2022-12-07T03:23:55;3.20;;;0.82;;
24409;SDS011;12543;53.364;-1.504;2022-12-07T03:26:28;3.63;;;0.85;;
24409;SDS011;12543;53.364;-1.504;2022-12-07T03:28:59;3.53;;;0.70;;
24409;SDS011;12543;53.364;-1.504;2022-12-07T03:31:32;2.40;;;0.82;;
24409;SDS011;12543;53.364;-1.504;2022-12-07T03:34:18;4.75;;;1.00;;
24409;SDS011;12543;53.364;-1.504;2022-12-07T03:37:00;2.92;;;0.80;;
24409;SDS011;12543;53.364;-1.504;2022-12-07T03:39:44;3.63;;;0.80;;
24409;SDS011;12543;53.364;-1.504;2022-12-07T03:42:33;5.05;;;0.90;;
24409;SDS011;12543;53.364;-1.504;2022-12-07T03:45:01;0.77;;;0.60;;
24409;SDS011;12543;53.364;-1.504;2022-12-07T03:47:31;3.03;;;0.88;;
24409;SDS011;12543;53.364;-1.504;2022-12-07T03:50:15;1.83;;;0.70;;
24409;SDS011;12543;53.364;-1.504;2022-12-07T03:52:55;2.70;;;0.82;;
24409;SDS011;12543;53.364;-1.504;2022-12-07T03:55:29;2.80;;;0.80;;
24409;SDS011;12543;53.364;-1.504;2022-12-07T03:58:00;1.52;;;0.70;;
24409;SDS011;12543;53.364;-1.504;2022-12-07T04:00:32;2.10;;;0.80;;
24409;SDS011;12543;53.364;-1.504;2022-12-07T04:02:59;3.63;;;0.63;;
24409;SDS011;12543;53.364;-1.504;2022-12-07T04:05:26;0.93;;;0.50;;
24409;SDS011;12543;53.364;-1.504;2022-12-07T04:07:54;1.95;;;0.80;;
24409;SDS011;12543;53.364;-1.504;2022-12-07T04:10:21;2.65;;;0.55;;
24409;SDS011;12543;53.364;-1.504;2022-12-07T04:12:48;2.03;;;0.70;;
24409;SDS011;12543;53.364;-1.504;2022-12-07T04:15:15;1.08;;;0.60;;
24409;SDS011;12543;53.364;-1.504;2022-12-07T04:17:42;2.20;;;0.63;;
24409;SDS011;12543;53.364;-1.504;2022-12-07T04:20:09;1.60;;;0.50;;
24409;SDS011;12543;53.364;-1.504;2022-12-07T04:22:37;5.00;;;0.90;;
24409;SDS011;12543;53.364;-1.504;2022-12-07T04:25:04;2.13;;;0.73;;
24409;SDS011;12543;53.364;-1.504;2022-12-07T04:27:31;3.17;;;0.70;;
24409;SDS011;12543;53.364;-1.504;2022-12-07T04:29:58;4.20;;;0.70;;
24409;SDS011;12543;53.364;-1.504;2022-12-07T04:32:26;2.10;;;0.50;;
24409;SDS011;12543;53.364;-1.504;2022-12-07T04:34:53;2.13;;;0.70;;
24409;SDS011;12543;53.364;-1.504;2022-12-07T04:37:21;4.10;;;0.90;;
24409;SDS011;12543;53.364;-1.504;2022-12-07T04:39:49;4.28;;;0.60;;
24409;SDS011;12543;53.364;-1.504;2022-12-07T04:42:16;3.67;;;0.50;;
24409;SDS011;12543;53.364;-1.504;2022-12-07T04:44:43;2.38;;;0.80;;
24409;SDS011;12543;53.364;-1.504;2022-12-07T04:47:10;3.83;;;0.63;;
24409;SDS011;12543;53.364;-1.504;2022-12-07T04:49:38;0.90;;;0.60;;
24409;SDS011;12543;53.364;-1.504;2022-12-07T04:52:05;2.13;;;0.80;;
24409;SDS011;12543;53.364;-1.504;2022-12-07T04:54:32;1.73;;;0.60;;
24409;SDS011;12543;53.364;-1.504;2022-12-07T04:56:59;7.00;;;1.27;;
24409;SDS011;12543;53.364;-1.504;2022-12-07T04:59:26;2.83;;;0.80;;
24409;SDS011;12543;53.364;-1.504;2022-12-07T05:01:53;2.95;;;0.80;;
24409;SDS011;12543;53.364;-1.504;2022-12-07T05:04:20;3.15;;;0.80;;
24409;SDS011;12543;53.364;-1.504;2022-12-07T05:06:47;1.45;;;0.57;;
24409;SDS011;12543;53.364;-1.504;2022-12-07T05:09:13;2.50;;;0.88;;
24409;SDS011;12543;53.364;-1.504;2022-12-07T05:11:40;1.83;;;0.65;;
24409;SDS011;12543;53.364;-1.504;2022-12-07T05:14:10;1.90;;;0.57;;
24409;SDS011;12543;53.364;-1.504;2022-12-07T05:16:39;1.08;;;0.60;;
24409;SDS011;12543;53.364;-1.504;2022-12-07T05:19:07;2.25;;;0.88;;
24409;SDS011;12543;53.364;-1.504;2022-12-07T05:21:35;2.20;;;0.50;;
24409;SDS011;12543;53.364;-1.504;2022-12-07T05:24:03;2.13;;;0.73;;
24409;SDS011;12543;53.364;-1.504;2022-12-07T05:26:31;1.45;;;0.60;;
24409;SDS011;12543;53.364;-1.504;2022-12-07T05:28:58;1.67;;;0.52;;
24409;SDS011;12543;53.364;-1.504;2022-12-07T05:31:26;1.17;;;0.60;;
24409;SDS011;12543;53.364;-1.504;2022-12-07T05:33:53;1.40;;;0.50;;
24409;SDS011;12543;53.364;-1.504;2022-12-07T05:36:21;3.15;;;0.70;;
24409;SDS011;12543;53.364;-1.504;2022-12-07T05:38:48;1.77;;;0.47;;
24409;SDS011;12543;53.364;-1.504;2022-12-07T05:41:17;3.38;;;0.93;;
24409;SDS011;12543;53.364;-1.504;2022-12-07T05:44:04;2.05;;;0.63;;
24409;SDS011;12543;53.364;-1.504;2022-12-07T05:46:31;2.80;;;0.80;;
24409;SDS011;12543;53.364;-1.504;2022-12-07T05:48:59;1.15;;;0.60;;
24409;SDS011;12543;53.364;-1.504;2022-12-07T05:51:26;1.15;;;0.63;;
24409;SDS011;12543;53.364;-1.504;2022-12-07T05:53:53;4.18;;;0.70;;
24409;SDS011;12543;53.364;-1.504;2022-12-07T05:56:20;1.38;;;0.52;;
24409;SDS011;12543;53.364;-1.504;2022-12-07T05:58:47;2.10;;;0.75;;
24409;SDS011;12543;53.364;-1.504;2022-12-07T06:01:33;1.85;;;0.60;;
24409;SDS011;12543;53.364;-1.504;2022-12-07T06:04:00;1.35;;;0.50;;
24409;SDS011;12543;53.364;-1.504;2022-12-07T06:06:27;2.72;;;0.68;;
24409;SDS011;12543;53.364;-1.504;2022-12-07T06:08:54;3.50;;;0.60;;
24409;SDS011;12543;53.364;-1.504;2022-12-07T06:11:21;3.28;;;0.60;;
24409;SDS011;12543;53.364;-1.504;2022-12-07T06:14:07;1.65;;;0.60;;
24409;SDS011;12543;53.364;-1.504;2022-12-07T06:16:34;2.47;;;0.77;;
24409;SDS011;12543;53.364;-1.504;2022-12-07T06:19:01;1.77;;;0.70;;
24409;SDS011;12543;53.364;-1.504;2022-12-07T06:21:28;3.00;;;0.80;;
24409;SDS011;12543;53.364;-1.504;2022-12-07T06:23:55;1.35;;;0.82;;
24409;SDS011;12543;53.364;-1.504;2022-12-07T06:26:22;2.47;;;0.57;;
24409;SDS011;12543;53.364;-1.504;2022-12-07T06:28:49;2.38;;;0.60;;
24409;SDS011;12543;53.364;-1.504;2022-12-07T06:31:16;3.80;;;0.77;;
24409;SDS011;12543;53.364;-1.504;2022-12-07T06:33:43;1.48;;;0.60;;
24409;SDS011;12543;53.364;-1.504;2022-12-07T06:36:10;1.80;;;0.70;;
24409;SDS011;12543;53.364;-1.504;2022-12-07T06:38:38;2.00;;;0.65;;
24409;SDS011;12543;53.364;-1.504;2022-12-07T06:41:05;2.00;;;0.70;;
24409;SDS011;12543;53.364;-1.504;2022-12-07T06:43:32;1.53;;;0.60;;
24409;SDS011;12543;53.364;-1.504;2022-12-07T06:46:00;1.40;;;0.57;;
24409;SDS011;12543;53.364;-1.504;2022-12-07T06:48:27;4.15;;;0.82;;
24409;SDS011;12543;53.364;-1.504;2022-12-07T06:50:54;2.83;;;0.75;;
24409;SDS011;12543;53.364;-1.504;2022-12-07T06:53:22;2.55;;;0.95;;
24409;SDS011;12543;53.364;-1.504;2022-12-07T06:55:49;2.70;;;0.77;;
24409;SDS011;12543;53.364;-1.504;2022-12-07T06:58:16;1.85;;;0.90;;
24409;SDS011;12543;53.364;-1.504;2022-12-07T07:00:44;2.72;;;0.90;;
24409;SDS011;12543;53.364;-1.504;2022-12-07T07:03:11;4.60;;;0.98;;
24409;SDS011;12543;53.364;-1.504;2022-12-07T07:05:38;2.83;;;0.80;;
24409;SDS011;12543;53.364;-1.504;2022-12-07T07:08:06;3.30;;;0.70;;
24409;SDS011;12543;53.364;-1.504;2022-12-07T07:10:49;3.20;;;1.00;;
24409;SDS011;12543;53.364;-1.504;2022-12-07T07:13:17;2.83;;;0.70;;
24409;SDS011;12543;53.364;-1.504;2022-12-07T07:15:44;3.10;;;0.70;;
24409;SDS011;12543;53.364;-1.504;2022-12-07T07:18:11;1.88;;;0.70;;
24409;SDS011;12543;53.364;-1.504;2022-12-07T07:20:38;2.28;;;0.80;;
24409;SDS011;12543;53.364;-1.504;2022-12-07T07:23:06;4.47;;;0.75;;
24409;SDS011;12543;53.364;-1.504;2022-12-07T07:25:33;2.92;;;0.80;;
24409;SDS011;12543;53.364;-1.504;2022-12-07T07:28:02;4.72;;;0.70;;
24409;SDS011;12543;53.364;-1.504;2022-12-07T07:30:30;1.30;;;0.70;;
24409;SDS011;12543;53.364;-1.504;2022-12-07T07:32:57;3.13;;;1.00;;
24409;SDS011;12543;53.364;-1.504;2022-12-07T07:35:26;0.98;;;0.60;;
24409;SDS011;12543;53.364;-1.504;2022-12-07T07:37:54;2.53;;;0.80;;
24409;SDS011;12543;53.364;-1.504;2022-12-07T07:40:21;1.85;;;0.70;;
24409;SDS011;12543;53.364;-1.504;2022-12-07T07:42:49;2.50;;;0.68;;
24409;SDS011;12543;53.364;-1.504;2022-12-07T07:45:18;3.35;;;0.80;;
24409;SDS011;12543;53.364;-1.504;2022-12-07T07:47:46;4.30;;;0.90;;
24409;SDS011;12543;53.364;-1.504;2022-12-07T07:50:13;1.58;;;0.80;;
24409;SDS011;12543;53.364;-1.504;2022-12-07T07:52:42;2.45;;;0.93;;
24409;SDS011;12543;53.364;-1.504;2022-12-07T07:55:09;1.50;;;0.70;;
24409;SDS011;12543;53.364;-1.504;2022-12-07T07:57:37;1.08;;;0.60;;
24409;SDS011;12543;53.364;-1.504;2022-12-07T08:02:39;4.22;;;1.00;;
24409;SDS011;12543;53.364;-1.504;2022-12-07T08:05:07;2.50;;;0.90;;
24409;SDS011;12543;53.364;-1.504;2022-12-07T08:07:34;3.58;;;0.60;;
24409;SDS011;12543;53.364;-1.504;2022-12-07T08:10:01;1.15;;;0.52;;
24409;SDS011;12543;53.364;-1.504;2022-12-07T08:12:29;2.60;;;1.17;;
24409;SDS011;12543;53.364;-1.504;2022-12-07T08:14:56;4.15;;;0.90;;
24409;SDS011;12543;53.364;-1.504;2022-12-07T08:17:23;1.73;;;0.73;;
24409;SDS011;12543;53.364;-1.504;2022-12-07T08:19:50;3.67;;;0.77;;
24409;SDS011;12543;53.364;-1.504;2022-12-07T08:22:17;1.73;;;0.63;;
24409;SDS011;12543;53.364;-1.504;2022-12-07T08:24:45;1.40;;;0.80;;
24409;SDS011;12543;53.364;-1.504;2022-12-07T08:27:12;2.58;;;0.75;;
24409;SDS011;12543;53.364;-1.504;2022-12-07T08:29:39;2.50;;;0.65;;
24409;SDS011;12543;53.364;-1.504;2022-12-07T08:32:06;1.45;;;0.70;;
24409;SDS011;12543;53.364;-1.504;2022-12-07T08:34:35;2.58;;;0.90;;
24409;SDS011;12543;53.364;-1.504;2022-12-07T08:37:03;2.65;;;0.98;;
24409;SDS011;12543;53.364;-1.504;2022-12-07T08:39:30;3.30;;;0.90;;
24409;SDS011;12543;53.364;-1.504;2022-12-07T08:41:58;4.32;;;0.90;;
24409;SDS011;12543;53.364;-1.504;2022-12-07T08:44:25;2.75;;;0.80;;
24409;SDS011;12543;53.364;-1.504;2022-12-07T08:46:53;2.55;;;0.88;;
24409;SDS011;12543;53.364;-1.504;2022-12-07T08:49:32;1.77;;;0.77;;
24409;SDS011;12543;53.364;-1.504;2022-12-07T08:52:04;2.05;;;0.77;;
24409;SDS011;12543;53.364;-1.504;2022-12-07T08:54:31;4.50;;;0.82;;
24409;SDS011;12543;53.364;-1.504;2022-12-07T08:57:01;2.38;;;0.88;;
24409;SDS011;12543;53.364;-1.504;2022-12-07T08:59:29;2.08;;;1.00;;
24409;SDS011;12543;53.364;-1.504;2022-12-07T09:01:56;5.03;;;1.00;;
24409;SDS011;12543;53.364;-1.504;2022-12-07T09:04:24;3.20;;;1.20;;
24409;SDS011;12543;53.364;-1.504;2022-12-07T09:06:51;3.08;;;1.10;;
24409;SDS011;12543;53.364;-1.504;2022-12-07T09:09:18;2.92;;;1.00;;
24409;SDS011;12543;53.364;-1.504;2022-12-07T09:11:45;2.83;;;1.00;;
24409;SDS011;12543;53.364;-1.504;2022-12-07T09:14:12;3.22;;;0.95;;
24409;SDS011;12543;53.364;-1.504;2022-12-07T09:16:40;1.58;;;0.90;;
24409;SDS011;12543;53.364;-1.504;2022-12-07T09:19:07;2.50;;;0.77;;
24409;SDS011;12543;53.364;-1.504;2022-12-07T09:21:34;3.28;;;1.10;;
24409;SDS011;12543;53.364;-1.504;2022-12-07T09:24:01;1.90;;;0.82;;
24409;SDS011;12543;53.364;-1.504;2022-12-07T09:26:29;2.85;;;0.75;;
24409;SDS011;12543;53.364;-1.504;2022-12-07T09:28:56;2.50;;;0.75;;
24409;SDS011;12543;53.364;-1.504;2022-12-07T09:31:23;3.55;;;0.90;;
24409;SDS011;12543;53.364;-1.504;2022-12-07T09:33:58;3.03;;;0.88;;
24409;SDS011;12543;53.364;-1.504;2022-12-07T09:36:27;4.18;;;0.95;;
24409;SDS011;12543;53.364;-1.504;2022-12-07T09:38:54;2.47;;;0.90;;
24409;SDS011;12543;53.364;-1.504;2022-12-07T09:41:22;2.75;;;1.00;;
24409;SDS011;12543;53.364;-1.504;2022-12-07T09:46:18;4.63;;;1.10;;
24409;SDS011;12543;53.364;-1.504;2022-12-07T09:48:47;2.58;;;0.90;;
24409;SDS011;12543;53.364;-1.504;2022-12-07T09:53:51;2.08;;;0.70;;
24409;SDS011;12543;53.364;-1.504;2022-12-07T09:56:20;4.47;;;1.00;;
24409;SDS011;12543;53.364;-1.504;2022-12-07T09:58:49;3.03;;;1.10;;
24409;SDS011;12543;53.364;-1.504;2022-12-07T10:01:24;2.95;;;0.90;;
24409;SDS011;12543;53.364;-1.504;2022-12-07T10:03:54;2.25;;;0.82;;
24409;SDS011;12543;53.364;-1.504;2022-12-07T10:06:27;0.68;;;0.68;;
24409;SDS011;12543;53.364;-1.504;2022-12-07T10:08:54;1.50;;;0.70;;
24409;SDS011;12543;53.364;-1.504;2022-12-07T10:11:21;2.35;;;0.98;;
24409;SDS011;12543;53.364;-1.504;2022-12-07T10:13:49;3.00;;;1.00;;
24409;SDS011;12543;53.364;-1.504;2022-12-07T10:16:27;1.70;;;0.80;;
24409;SDS011;12543;53.364;-1.504;2022-12-07T10:22:12;1.90;;;0.90;;
24409;SDS011;12543;53.364;-1.504;2022-12-07T10:24:41;2.17;;;0.90;;
24409;SDS011;12543;53.364;-1.504;2022-12-07T10:27:25;4.57;;;0.98;;
24409;SDS011;12543;53.364;-1.504;2022-12-07T10:29:56;2.88;;;0.82;;
24409;SDS011;12543;53.364;-1.504;2022-12-07T10:32:32;2.38;;;0.95;;
24409;SDS011;12543;53.364;-1.504;2022-12-07T10:37:55;1.05;;;0.65;;
24409;SDS011;12543;53.364;-1.504;2022-12-07T10:48:32;1.40;;;0.70;;
24409;SDS011;12543;53.364;-1.504;2022-12-07T10:51:30;3.65;;;0.90;;
24409;SDS011;12543;53.364;-1.504;2022-12-07T10:59:23;3.85;;;0.90;;
24409;SDS011;12543;53.364;-1.504;2022-12-07T11:02:15;1.73;;;1.10;;
24409;SDS011;12543;53.364;-1.504;2022-12-07T11:07:51;1.73;;;0.90;;
24409;SDS011;12543;53.364;-1.504;2022-12-07T11:13:00;3.38;;;0.90;;
24409;SDS011;12543;53.364;-1.504;2022-12-07T11:24:18;1.90;;;0.85;;
24409;SDS011;12543;53.364;-1.504;2022-12-07T11:30:02;2.85;;;0.88;;
24409;SDS011;12543;53.364;-1.504;2022-12-07T11:37:49;3.00;;;0.90;;
24409;SDS011;12543;53.364;-1.504;2022-12-07T11:40:36;3.58;;;0.82;;
24409;SDS011;12543;53.364;-1.504;2022-12-07T11:43:21;1.23;;;0.60;;
24409;SDS011;12543;53.364;-1.504;2022-12-07T11:45:59;3.55;;;0.90;;
24409;SDS011;12543;53.364;-1.504;2022-12-07T11:48:47;3.38;;;0.73;;
24409;SDS011;12543;53.364;-1.504;2022-12-07T11:51:31;1.92;;;0.80;;
24409;SDS011;12543;53.364;-1.504;2022-12-07T11:54:14;4.47;;;0.82;;
24409;SDS011;12543;53.364;-1.504;2022-12-07T11:57:04;2.92;;;0.88;;
24409;SDS011;12543;53.364;-1.504;2022-12-07T11:59:57;6.20;;;1.17;;
24409;SDS011;12543;53.364;-1.504;2022-12-07T12:02:34;4.03;;;0.80;;
24409;SDS011;12543;53.364;-1.504;2022-12-07T12:05:19;1.50;;;0.80;;
24409;SDS011;12543;53.364;-1.504;2022-12-07T12:08:03;3.47;;;0.98;;
24409;SDS011;12543;53.364;-1.504;2022-12-07T12:14:03;3.97;;;0.85;;
24409;SDS011;12543;53.364;-1.504;2022-12-07T12:20:18;2.85;;;0.82;;
24409;SDS011;12543;53.364;-1.504;2022-12-07T12:22:53;3.22;;;1.02;;
24409;SDS011;12543;53.364;-1.504;2022-12-07T12:25:27;2.22;;;0.90;;
24409;SDS011;12543;53.364;-1.504;2022-12-07T12:27:58;2.08;;;1.00;;
24409;SDS011;12543;53.364;-1.504;2022-12-07T12:30:31;1.95;;;0.68;;
24409;SDS011;12543;53.364;-1.504;2022-12-07T12:33:12;2.88;;;0.93;;
24409;SDS011;12543;53.364;-1.504;2022-12-07T12:36:16;3.90;;;0.95;;
24409;SDS011;12543;53.364;-1.504;2022-12-07T12:54:59;2.08;;;1.00;;
24409;SDS011;12543;53.364;-1.504;2022-12-07T12:57:33;2.50;;;1.40;;
24409;SDS011;12543;53.364;-1.504;2022-12-07T13:00:23;1.60;;;1.05;;
24409;SDS011;12543;53.364;-1.504;2022-12-07T13:02:54;2.13;;;1.02;;
24409;SDS011;12543;53.364;-1.504;2022-12-07T13:05:23;2.63;;;1.00;;
24409;SDS011;12543;53.364;-1.504;2022-12-07T13:28:50;2.35;;;0.73;;
24409;SDS011;12543;53.364;-1.504;2022-12-07T13:31:42;4.25;;;1.38;;
24409;SDS011;12543;53.364;-1.504;2022-12-07T13:39:49;3.90;;;1.90;;
24409;SDS011;12543;53.364;-1.504;2022-12-07T13:42:31;14.10;;;4.30;;
24409;SDS011;12543;53.364;-1.504;2022-12-07T13:45:00;13.27;;;4.25;;
24409;SDS011;12543;53.364;-1.504;2022-12-07T13:47:52;9.20;;;3.08;;
24409;SDS011;12543;53.364;-1.504;2022-12-07T13:52:54;6.32;;;3.15;;
24409;SDS011;12543;53.364;-1.504;2022-12-07T13:55:22;5.45;;;2.83;;
24409;SDS011;12543;53.364;-1.504;2022-12-07T13:57:50;6.00;;;2.25;;
24409;SDS011;12543;53.364;-1.504;2022-12-07T14:00:20;4.95;;;1.90;;
24409;SDS011;12543;53.364;-1.504;2022-12-07T14:03:03;6.93;;;2.55;;
24409;SDS011;12543;53.364;-1.504;2022-12-07T14:06:02;7.38;;;3.20;;
24409;SDS011;12543;53.364;-1.504;2022-12-07T14:08:31;4.40;;;2.50;;
24409;SDS011;12543;53.364;-1.504;2022-12-07T14:10:58;3.78;;;1.80;;
24409;SDS011;12543;53.364;-1.504;2022-12-07T14:16:13;4.43;;;2.10;;
24409;SDS011;12543;53.364;-1.504;2022-12-07T14:18:49;4.50;;;1.95;;
24409;SDS011;12543;53.364;-1.504;2022-12-07T14:21:17;5.05;;;2.35;;
24409;SDS011;12543;53.364;-1.504;2022-12-07T14:23:47;5.10;;;1.88;;
24409;SDS011;12543;53.364;-1.504;2022-12-07T14:26:41;4.70;;;2.17;;
24409;SDS011;12543;53.364;-1.504;2022-12-07T14:31:51;5.25;;;2.70;;
24409;SDS011;12543;53.364;-1.504;2022-12-07T14:34:20;5.10;;;2.55;;
24409;SDS011;12543;53.364;-1.504;2022-12-07T14:36:47;8.18;;;3.42;;
24409;SDS011;12543;53.364;-1.504;2022-12-07T14:39:15;4.60;;;2.78;;
24409;SDS011;12543;53.364;-1.504;2022-12-07T14:41:42;4.13;;;2.80;;
24409;SDS011;12543;53.364;-1.504;2022-12-07T14:44:19;5.70;;;3.42;;
24409;SDS011;12543;53.364;-1.504;2022-12-07T14:46:51;5.80;;;3.28;;
24409;SDS011;12543;53.364;-1.504;2022-12-07T14:49:38;4.53;;;3.58;;
24409;SDS011;12543;53.364;-1.504;2022-12-07T14:52:05;8.38;;;3.97;;
24409;SDS011;12543;53.364;-1.504;2022-12-07T14:57:31;6.13;;;4.43;;
24409;SDS011;12543;53.364;-1.504;2022-12-07T14:59:58;5.70;;;4.25;;
24409;SDS011;12543;53.364;-1.504;2022-12-07T15:02:25;6.10;;;4.45;;
24409;SDS011;12543;53.364;-1.504;2022-12-07T15:04:52;6.40;;;4.65;;
24409;SDS011;12543;53.364;-1.504;2022-12-07T15:07:20;9.32;;;5.15;;
24409;SDS011;12543;53.364;-1.504;2022-12-07T15:09:48;8.25;;;5.07;;
24409;SDS011;12543;53.364;-1.504;2022-12-07T15:12:15;5.70;;;4.97;;
24409;SDS011;12543;53.364;-1.504;2022-12-07T15:14:42;7.72;;;6.07;;
24409;SDS011;12543;53.364;-1.504;2022-12-07T15:17:10;7.35;;;5.65;;
24409;SDS011;12543;53.364;-1.504;2022-12-07T15:19:55;11.73;;;6.03;;
24409;SDS011;12543;53.364;-1.504;2022-12-07T15:22:22;8.52;;;5.07;;
24409;SDS011;12543;53.364;-1.504;2022-12-07T15:24:49;6.07;;;4.57;;
24409;SDS011;12543;53.364;-1.504;2022-12-07T15:27:16;9.30;;;5.70;;
24409;SDS011;12543;53.364;-1.504;2022-12-07T15:29:43;9.07;;;5.40;;
24409;SDS011;12543;53.364;-1.504;2022-12-07T15:32:10;12.85;;;6.43;;
24409;SDS011;12543;53.364;-1.504;2022-12-07T15:34:37;11.55;;;6.28;;
24409;SDS011;12543;53.364;-1.504;2022-12-07T15:39:33;10.05;;;6.45;;
24409;SDS011;12543;53.364;-1.504;2022-12-07T15:42:02;11.32;;;6.05;;
24409;SDS011;12543;53.364;-1.504;2022-12-07T15:44:29;9.30;;;5.50;;
24409;SDS011;12543;53.364;-1.504;2022-12-07T15:47:15;7.18;;;4.93;;
24409;SDS011;12543;53.364;-1.504;2022-12-07T15:49:42;7.57;;;4.68;;
24409;SDS011;12543;53.364;-1.504;2022-12-07T15:52:09;8.13;;;5.05;;
24409;SDS011;12543;53.364;-1.504;2022-12-07T15:54:36;7.35;;;4.35;;
24409;SDS011;12543;53.364;-1.504;2022-12-07T15:57:03;7.15;;;4.65;;
24409;SDS011;12543;53.364;-1.504;2022-12-07T15:59:30;6.72;;;4.43;;
24409;SDS011;12543;53.364;-1.504;2022-12-07T16:01:58;6.50;;;4.30;;
24409;SDS011;12543;53.364;-1.504;2022-12-07T16:04:26;5.93;;;4.50;;
24409;SDS011;12543;53.364;-1.504;2022-12-07T16:06:54;9.07;;;4.47;;
24409;SDS011;12543;53.364;-1.504;2022-12-07T16:09:22;7.72;;;5.05;;
24409;SDS011;12543;53.364;-1.504;2022-12-07T16:11:49;6.97;;;4.80;;
24409;SDS011;12543;53.364;-1.504;2022-12-07T16:14:16;8.05;;;4.95;;
24409;SDS011;12543;53.364;-1.504;2022-12-07T16:16:44;5.78;;;4.38;;
24409;SDS011;12543;53.364;-1.504;2022-12-07T16:19:11;8.40;;;5.13;;
24409;SDS011;12543;53.364;-1.504;2022-12-07T16:21:38;9.20;;;5.18;;
24409;SDS011;12543;53.364;-1.504;2022-12-07T16:24:05;9.00;;;5.38;;
24409;SDS011;12543;53.364;-1.504;2022-12-07T16:26:33;8.45;;;5.13;;
24409;SDS011;12543;53.364;-1.504;2022-12-07T16:29:00;7.20;;;4.97;;
24409;SDS011;12543;53.364;-1.504;2022-12-07T16:31:27;8.90;;;4.88;;
24409;SDS011;12543;53.364;-1.504;2022-12-07T16:33:56;7.25;;;4.35;;
24409;SDS011;12543;53.364;-1.504;2022-12-07T16:36:24;8.15;;;4.53;;
24409;SDS011;12543;53.364;-1.504;2022-12-07T16:39:13;6.43;;;4.07;;
24409;SDS011;12543;53.364;-1.504;2022-12-07T16:41:40;5.65;;;4.00;;
24409;SDS011;12543;53.364;-1.504;2022-12-07T16:44:10;7.68;;;3.72;;
24409;SDS011;12543;53.364;-1.504;2022-12-07T16:46:39;6.90;;;2.88;;
24409;SDS011;12543;53.364;-1.504;2022-12-07T16:49:08;4.30;;;3.00;;
24409;SDS011;12543;53.364;-1.504;2022-12-07T16:51:43;5.65;;;2.70;;
24409;SDS011;12543;53.364;-1.504;2022-12-07T16:54:11;4.93;;;3.05;;
24409;SDS011;12543;53.364;-1.504;2022-12-07T16:56:39;7.60;;;3.25;;
24409;SDS011;12543;53.364;-1.504;2022-12-07T16:59:06;6.78;;;3.00;;
24409;SDS011;12543;53.364;-1.504;2022-12-07T17:01:34;5.32;;;3.05;;
24409;SDS011;12543;53.364;-1.504;2022-12-07T17:04:02;6.45;;;3.63;;
24409;SDS011;12543;53.364;-1.504;2022-12-07T17:06:31;4.93;;;2.70;;
24409;SDS011;12543;53.364;-1.504;2022-12-07T17:08:58;5.50;;;3.25;;
24409;SDS011;12543;53.364;-1.504;2022-12-07T17:11:27;4.80;;;3.00;;
24409;SDS011;12543;53.364;-1.504;2022-12-07T17:13:55;5.18;;;2.55;;